sensor_id;sensor_type;location;lat;lon;timestamp;temperature;humidity
23629;DHT22;11991;57.150;-2.134;2024-02-26T00:01:53;3.80;99.90
23629;DHT22;11991;57.150;-2.134;2024-02-26T00:04:21;3.80;99.90
23629;DHT22;11991;57.150;-2.134;2024-02-26T00:06:48;3.80;99.90
23629;DHT22;11991;57.150;-2.134;2024-02-26T00:09:18;3.80;99.90
23629;DHT22;11991;57.150;-2.134;2024-02-26T00:11:45;3.80;99.90
23629;DHT22;11991;57.150;-2.134;2024-02-26T00:14:12;3.80;99.90
23629;DHT22;11991;57.150;-2.134;2024-02-26T00:16:41;3.70;99.90
23629;DHT22;11991;57.150;-2.134;2024-02-26T00:19:08;3.70;99.90
23629;DHT22;11991;57.150;-2.134;2024-02-26T00:21:40;3.70;99.90
23629;DHT22;11991;57.150;-2.134;2024-02-26T00:24:08;3.70;99.90
23629;DHT22;11991;57.150;-2.134;2024-02-26T00:26:35;3.70;99.90
23629;DHT22;11991;57.150;-2.134;2024-02-26T00:29:03;3.70;99.90
23629;DHT22;11991;57.150;-2.134;2024-02-26T00:31:30;3.80;99.90
23629;DHT22;11991;57.150;-2.134;2024-02-26T00:33:58;3.80;99.90
23629;DHT22;11991;57.150;-2.134;2024-02-26T00:36:26;3.80;99.90
23629;DHT22;11991;57.150;-2.134;2024-02-26T00:38:54;3.80;99.90
23629;DHT22;11991;57.150;-2.134;2024-02-26T00:41:21;3.70;99.90
23629;DHT22;11991;57.150;-2.134;2024-02-26T00:43:48;3.80;99.90
23629;DHT22;11991;57.150;-2.134;2024-02-26T00:46:15;3.80;99.90
23629;DHT22;11991;57.150;-2.134;2024-02-26T00:48:42;3.80;99.90
23629;DHT22;11991;57.150;-2.134;2024-02-26T00:51:10;3.80;99.90
23629;DHT22;11991;57.150;-2.134;2024-02-26T00:53:37;3.80;99.90
23629;DHT22;11991;57.150;-2.134;2024-02-26T00:56:05;3.80;99.90
23629;DHT22;11991;57.150;-2.134;2024-02-26T00:58:32;3.80;99.90
23629;DHT22;11991;57.150;-2.134;2024-02-26T01:00:59;3.80;99.90
23629;DHT22;11991;57.150;-2.134;2024-02-26T01:03:27;3.70;99.90
23629;DHT22;11991;57.150;-2.134;2024-02-26T01:05:54;3.70;99.90
23629;DHT22;11991;57.150;-2.134;2024-02-26T01:08:25;3.70;99.90
23629;DHT22;11991;57.150;-2.134;2024-02-26T01:10:52;3.70;99.90
23629;DHT22;11991;57.150;-2.134;2024-02-26T01:13:19;3.70;99.90
23629;DHT22;11991;57.150;-2.134;2024-02-26T01:15:46;3.70;99.90
23629;DHT22;11991;57.150;-2.134;2024-02-26T01:18:14;3.60;99.90
23629;DHT22;11991;57.150;-2.134;2024-02-26T01:20:41;3.60;99.90
23629;DHT22;11991;57.150;-2.134;2024-02-26T01:23:08;3.50;99.90
23629;DHT22;11991;57.150;-2.134;2024-02-26T01:25:35;3.50;99.90
23629;DHT22;11991;57.150;-2.134;2024-02-26T01:28:04;3.50;99.90
23629;DHT22;11991;57.150;-2.134;2024-02-26T01:30:31;3.50;99.90
23629;DHT22;11991;57.150;-2.134;2024-02-26T01:32:58;3.50;99.90
23629;DHT22;11991;57.150;-2.134;2024-02-26T01:35:26;3.50;99.90
23629;DHT22;11991;57.150;-2.134;2024-02-26T01:37:53;3.50;99.90
23629;DHT22;11991;57.150;-2.134;2024-02-26T01:40:20;3.50;99.90
23629;DHT22;11991;57.150;-2.134;2024-02-26T01:42:47;3.50;99.90
23629;DHT22;11991;57.150;-2.134;2024-02-26T01:45:16;3.50;99.90
23629;DHT22;11991;57.150;-2.134;2024-02-26T01:47:50;3.50;99.90
23629;DHT22;11991;57.150;-2.134;2024-02-26T01:50:19;3.50;99.90
23629;DHT22;11991;57.150;-2.134;2024-02-26T01:52:47;3.60;99.90
23629;DHT22;11991;57.150;-2.134;2024-02-26T01:55:19;3.60;99.90
23629;DHT22;11991;57.150;-2.134;2024-02-26T01:57:49;3.60;99.90
23629;DHT22;11991;57.150;-2.134;2024-02-26T02:00:20;3.60;99.90
23629;DHT22;11991;57.150;-2.134;2024-02-26T02:02:48;3.60;99.90
23629;DHT22;11991;57.150;-2.134;2024-02-26T02:05:17;3.70;99.90
23629;DHT22;11991;57.150;-2.134;2024-02-26T02:07:45;3.70;99.90
23629;DHT22;11991;57.150;-2.134;2024-02-26T02:10:14;3.70;99.90
23629;DHT22;11991;57.150;-2.134;2024-02-26T02:12:41;3.80;99.90
23629;DHT22;11991;57.150;-2.134;2024-02-26T02:15:08;3.80;99.90
23629;DHT22;11991;57.150;-2.134;2024-02-26T02:17:36;3.80;99.90
23629;DHT22;11991;57.150;-2.134;2024-02-26T02:20:05;3.80;99.90
23629;DHT22;11991;57.150;-2.134;2024-02-26T02:22:34;3.90;99.90
23629;DHT22;11991;57.150;-2.134;2024-02-26T02:25:01;3.90;99.90
23629;DHT22;11991;57.150;-2.134;2024-02-26T02:27:29;3.90;99.90
23629;DHT22;11991;57.150;-2.134;2024-02-26T02:29:56;3.90;99.90
23629;DHT22;11991;57.150;-2.134;2024-02-26T02:32:24;3.90;99.90
23629;DHT22;11991;57.150;-2.134;2024-02-26T02:34:52;3.90;99.90
23629;DHT22;11991;57.150;-2.134;2024-02-26T02:37:20;3.90;99.90
23629;DHT22;11991;57.150;-2.134;2024-02-26T02:39:47;3.90;99.90
23629;DHT22;11991;57.150;-2.134;2024-02-26T02:42:14;3.90;99.90
23629;DHT22;11991;57.150;-2.134;2024-02-26T02:44:42;3.90;99.90
23629;DHT22;11991;57.150;-2.134;2024-02-26T02:47:09;3.80;99.90
23629;DHT22;11991;57.150;-2.134;2024-02-26T02:49:36;3.80;99.90
23629;DHT22;11991;57.150;-2.134;2024-02-26T02:52:04;3.80;99.90
23629;DHT22;11991;57.150;-2.134;2024-02-26T02:54:31;3.80;99.90
23629;DHT22;11991;57.150;-2.134;2024-02-26T02:56:58;3.90;99.90
23629;DHT22;11991;57.150;-2.134;2024-02-26T02:59:26;3.80;99.90
23629;DHT22;11991;57.150;-2.134;2024-02-26T03:01:53;3.80;99.90
23629;DHT22;11991;57.150;-2.134;2024-02-26T03:04:21;3.80;99.90
23629;DHT22;11991;57.150;-2.134;2024-02-26T03:06:48;3.80;99.90
23629;DHT22;11991;57.150;-2.134;2024-02-26T03:09:16;3.70;99.90
23629;DHT22;11991;57.150;-2.134;2024-02-26T03:11:43;3.70;99.90
23629;DHT22;11991;57.150;-2.134;2024-02-26T03:14:10;3.70;99.90
23629;DHT22;11991;57.150;-2.134;2024-02-26T03:16:38;3.60;99.90
23629;DHT22;11991;57.150;-2.134;2024-02-26T03:19:05;3.60;99.90
23629;DHT22;11991;57.150;-2.134;2024-02-26T03:21:32;3.60;99.90
23629;DHT22;11991;57.150;-2.134;2024-02-26T03:23:59;3.60;99.90
23629;DHT22;11991;57.150;-2.134;2024-02-26T03:26:26;3.60;99.90
23629;DHT22;11991;57.150;-2.134;2024-02-26T03:28:54;3.60;99.90
23629;DHT22;11991;57.150;-2.134;2024-02-26T03:31:21;3.60;99.90
23629;DHT22;11991;57.150;-2.134;2024-02-26T03:33:48;3.60;99.90
23629;DHT22;11991;57.150;-2.134;2024-02-26T03:36:16;3.60;99.90
23629;DHT22;11991;57.150;-2.134;2024-02-26T03:38:43;3.60;99.90
23629;DHT22;11991;57.150;-2.134;2024-02-26T03:41:10;3.60;99.90
23629;DHT22;11991;57.150;-2.134;2024-02-26T03:43:37;3.70;99.90
23629;DHT22;11991;57.150;-2.134;2024-02-26T03:46:07;3.70;99.90
23629;DHT22;11991;57.150;-2.134;2024-02-26T03:48:35;3.70;99.90
23629;DHT22;11991;57.150;-2.134;2024-02-26T03:51:03;3.70;99.90
23629;DHT22;11991;57.150;-2.134;2024-02-26T03:53:30;3.60;99.90
23629;DHT22;11991;57.150;-2.134;2024-02-26T03:55:58;3.60;99.90
23629;DHT22;11991;57.150;-2.134;2024-02-26T03:58:25;3.70;99.90
23629;DHT22;11991;57.150;-2.134;2024-02-26T04:00:52;3.70;99.90
23629;DHT22;11991;57.150;-2.134;2024-02-26T04:03:19;3.70;99.90
23629;DHT22;11991;57.150;-2.134;2024-02-26T04:05:47;3.70;99.90
23629;DHT22;11991;57.150;-2.134;2024-02-26T04:08:14;3.70;99.90
23629;DHT22;11991;57.150;-2.134;2024-02-26T04:10:41;3.70;99.90
23629;DHT22;11991;57.150;-2.134;2024-02-26T04:13:09;3.70;99.90
23629;DHT22;11991;57.150;-2.134;2024-02-26T04:15:36;3.70;99.90
23629;DHT22;11991;57.150;-2.134;2024-02-26T04:18:04;3.70;99.90
23629;DHT22;11991;57.150;-2.134;2024-02-26T04:20:31;3.70;99.90
23629;DHT22;11991;57.150;-2.134;2024-02-26T04:22:58;3.80;99.90
23629;DHT22;11991;57.150;-2.134;2024-02-26T04:25:25;3.80;99.90
23629;DHT22;11991;57.150;-2.134;2024-02-26T04:27:53;3.80;99.90
23629;DHT22;11991;57.150;-2.134;2024-02-26T04:30:21;3.80;99.90
23629;DHT22;11991;57.150;-2.134;2024-02-26T04:32:48;3.80;99.90
23629;DHT22;11991;57.150;-2.134;2024-02-26T04:35:15;3.90;99.90
23629;DHT22;11991;57.150;-2.134;2024-02-26T04:37:43;3.90;99.90
23629;DHT22;11991;57.150;-2.134;2024-02-26T04:40:10;3.90;99.90
23629;DHT22;11991;57.150;-2.134;2024-02-26T04:42:37;3.80;99.90
23629;DHT22;11991;57.150;-2.134;2024-02-26T04:45:05;3.90;99.90
23629;DHT22;11991;57.150;-2.134;2024-02-26T04:47:34;3.90;99.90
23629;DHT22;11991;57.150;-2.134;2024-02-26T04:50:01;3.90;99.90
23629;DHT22;11991;57.150;-2.134;2024-02-26T04:52:28;3.80;99.90
23629;DHT22;11991;57.150;-2.134;2024-02-26T04:54:56;3.80;99.90
23629;DHT22;11991;57.150;-2.134;2024-02-26T04:57:23;3.80;99.90
23629;DHT22;11991;57.150;-2.134;2024-02-26T04:59:50;3.70;99.90
23629;DHT22;11991;57.150;-2.134;2024-02-26T05:02:17;3.70;99.90
23629;DHT22;11991;57.150;-2.134;2024-02-26T05:04:45;3.70;99.90
23629;DHT22;11991;57.150;-2.134;2024-02-26T05:07:12;3.70;99.90
23629;DHT22;11991;57.150;-2.134;2024-02-26T05:09:40;3.70;99.90
23629;DHT22;11991;57.150;-2.134;2024-02-26T05:12:09;3.70;99.90
23629;DHT22;11991;57.150;-2.134;2024-02-26T05:14:37;3.70;99.90
23629;DHT22;11991;57.150;-2.134;2024-02-26T05:17:04;3.70;99.90
23629;DHT22;11991;57.150;-2.134;2024-02-26T05:19:32;3.70;99.90
23629;DHT22;11991;57.150;-2.134;2024-02-26T05:21:59;3.70;99.90
23629;DHT22;11991;57.150;-2.134;2024-02-26T05:24:27;3.70;99.90
23629;DHT22;11991;57.150;-2.134;2024-02-26T05:26:54;3.70;99.90
23629;DHT22;11991;57.150;-2.134;2024-02-26T05:29:22;3.60;99.90
23629;DHT22;11991;57.150;-2.134;2024-02-26T05:31:49;3.60;99.90
23629;DHT22;11991;57.150;-2.134;2024-02-26T05:34:16;3.60;99.90
23629;DHT22;11991;57.150;-2.134;2024-02-26T05:36:44;3.60;99.90
23629;DHT22;11991;57.150;-2.134;2024-02-26T05:39:11;3.60;99.90
23629;DHT22;11991;57.150;-2.134;2024-02-26T05:41:44;3.60;99.90
23629;DHT22;11991;57.150;-2.134;2024-02-26T05:44:11;3.60;99.90
23629;DHT22;11991;57.150;-2.134;2024-02-26T05:46:39;3.60;99.90
23629;DHT22;11991;57.150;-2.134;2024-02-26T05:49:06;3.60;99.90
23629;DHT22;11991;57.150;-2.134;2024-02-26T05:51:34;3.60;99.90
23629;DHT22;11991;57.150;-2.134;2024-02-26T05:54:01;3.70;99.90
23629;DHT22;11991;57.150;-2.134;2024-02-26T05:56:28;3.70;99.90
23629;DHT22;11991;57.150;-2.134;2024-02-26T05:58:55;3.60;99.90
23629;DHT22;11991;57.150;-2.134;2024-02-26T06:01:23;3.60;99.90
23629;DHT22;11991;57.150;-2.134;2024-02-26T06:03:51;3.60;99.90
23629;DHT22;11991;57.150;-2.134;2024-02-26T06:06:19;3.60;99.90
23629;DHT22;11991;57.150;-2.134;2024-02-26T06:08:46;3.60;99.90
23629;DHT22;11991;57.150;-2.134;2024-02-26T06:11:13;3.60;99.90
23629;DHT22;11991;57.150;-2.134;2024-02-26T06:13:40;3.60;99.90
23629;DHT22;11991;57.150;-2.134;2024-02-26T06:16:08;3.60;99.90
23629;DHT22;11991;57.150;-2.134;2024-02-26T06:18:35;3.60;99.90
23629;DHT22;11991;57.150;-2.134;2024-02-26T06:21:03;3.60;99.90
23629;DHT22;11991;57.150;-2.134;2024-02-26T06:23:30;3.70;99.90
23629;DHT22;11991;57.150;-2.134;2024-02-26T06:25:57;3.70;99.90
23629;DHT22;11991;57.150;-2.134;2024-02-26T06:28:24;3.70;99.90
23629;DHT22;11991;57.150;-2.134;2024-02-26T06:30:52;3.70;99.90
23629;DHT22;11991;57.150;-2.134;2024-02-26T06:33:19;3.70;99.90
23629;DHT22;11991;57.150;-2.134;2024-02-26T06:35:46;3.60;99.90
23629;DHT22;11991;57.150;-2.134;2024-02-26T06:38:14;3.60;99.90
23629;DHT22;11991;57.150;-2.134;2024-02-26T06:40:41;3.60;99.90
23629;DHT22;11991;57.150;-2.134;2024-02-26T06:43:08;3.60;99.90
23629;DHT22;11991;57.150;-2.134;2024-02-26T06:45:36;3.50;99.90
23629;DHT22;11991;57.150;-2.134;2024-02-26T06:48:03;3.50;99.90
23629;DHT22;11991;57.150;-2.134;2024-02-26T06:50:30;3.50;99.90
23629;DHT22;11991;57.150;-2.134;2024-02-26T06:52:57;3.40;99.90
23629;DHT22;11991;57.150;-2.134;2024-02-26T06:55:25;3.40;99.90
23629;DHT22;11991;57.150;-2.134;2024-02-26T06:57:52;3.40;99.90
23629;DHT22;11991;57.150;-2.134;2024-02-26T07:00:19;3.40;99.90
23629;DHT22;11991;57.150;-2.134;2024-02-26T07:02:47;3.30;99.90
23629;DHT22;11991;57.150;-2.134;2024-02-26T07:05:14;3.30;99.90
23629;DHT22;11991;57.150;-2.134;2024-02-26T07:07:41;3.30;99.90
23629;DHT22;11991;57.150;-2.134;2024-02-26T07:10:08;3.30;99.90
23629;DHT22;11991;57.150;-2.134;2024-02-26T07:12:36;3.30;99.90
23629;DHT22;11991;57.150;-2.134;2024-02-26T07:15:03;3.30;99.90
23629;DHT22;11991;57.150;-2.134;2024-02-26T07:17:31;3.30;99.90
23629;DHT22;11991;57.150;-2.134;2024-02-26T07:20:01;3.40;99.90
23629;DHT22;11991;57.150;-2.134;2024-02-26T07:22:35;3.40;99.90
23629;DHT22;11991;57.150;-2.134;2024-02-26T07:25:02;3.40;99.90
23629;DHT22;11991;57.150;-2.134;2024-02-26T07:27:30;3.40;99.90
23629;DHT22;11991;57.150;-2.134;2024-02-26T07:29:57;3.40;99.90
23629;DHT22;11991;57.150;-2.134;2024-02-26T07:32:24;3.40;99.90
23629;DHT22;11991;57.150;-2.134;2024-02-26T07:34:52;3.40;99.90
23629;DHT22;11991;57.150;-2.134;2024-02-26T07:37:19;3.40;99.90
23629;DHT22;11991;57.150;-2.134;2024-02-26T07:39:46;3.40;99.90
23629;DHT22;11991;57.150;-2.134;2024-02-26T07:42:13;3.50;99.90
23629;DHT22;11991;57.150;-2.134;2024-02-26T07:44:41;3.50;99.90
23629;DHT22;11991;57.150;-2.134;2024-02-26T07:47:10;3.50;99.90
23629;DHT22;11991;57.150;-2.134;2024-02-26T07:49:37;3.50;99.90
23629;DHT22;11991;57.150;-2.134;2024-02-26T07:52:05;3.50;99.90
23629;DHT22;11991;57.150;-2.134;2024-02-26T07:54:33;3.60;99.90
23629;DHT22;11991;57.150;-2.134;2024-02-26T07:57:00;3.60;99.90
23629;DHT22;11991;57.150;-2.134;2024-02-26T07:59:28;3.60;99.90
23629;DHT22;11991;57.150;-2.134;2024-02-26T08:01:55;3.70;99.90
23629;DHT22;11991;57.150;-2.134;2024-02-26T08:04:25;3.70;99.90
23629;DHT22;11991;57.150;-2.134;2024-02-26T08:06:54;3.70;99.90
23629;DHT22;11991;57.150;-2.134;2024-02-26T08:09:21;3.70;99.90
23629;DHT22;11991;57.150;-2.134;2024-02-26T08:11:49;3.80;99.90
23629;DHT22;11991;57.150;-2.134;2024-02-26T08:14:16;3.80;99.90
23629;DHT22;11991;57.150;-2.134;2024-02-26T08:16:43;3.90;99.90
23629;DHT22;11991;57.150;-2.134;2024-02-26T08:19:10;3.80;99.90
23629;DHT22;11991;57.150;-2.134;2024-02-26T08:21:41;3.80;99.90
23629;DHT22;11991;57.150;-2.134;2024-02-26T08:24:08;3.80;99.90
23629;DHT22;11991;57.150;-2.134;2024-02-26T08:26:35;3.80;99.90
23629;DHT22;11991;57.150;-2.134;2024-02-26T08:29:02;3.80;99.90
23629;DHT22;11991;57.150;-2.134;2024-02-26T08:31:30;3.90;99.90
23629;DHT22;11991;57.150;-2.134;2024-02-26T08:33:57;3.90;99.90
23629;DHT22;11991;57.150;-2.134;2024-02-26T08:36:26;3.90;99.90
23629;DHT22;11991;57.150;-2.134;2024-02-26T08:38:53;4.00;99.90
23629;DHT22;11991;57.150;-2.134;2024-02-26T08:41:21;4.10;99.90
23629;DHT22;11991;57.150;-2.134;2024-02-26T08:43:48;4.10;99.90
23629;DHT22;11991;57.150;-2.134;2024-02-26T08:46:15;4.20;99.90
23629;DHT22;11991;57.150;-2.134;2024-02-26T08:48:42;4.20;99.90
23629;DHT22;11991;57.150;-2.134;2024-02-26T08:51:10;4.30;99.90
23629;DHT22;11991;57.150;-2.134;2024-02-26T08:53:37;4.40;99.90
23629;DHT22;11991;57.150;-2.134;2024-02-26T08:56:10;4.40;99.90
23629;DHT22;11991;57.150;-2.134;2024-02-26T08:58:45;4.40;99.90
23629;DHT22;11991;57.150;-2.134;2024-02-26T09:01:15;4.30;99.90
23629;DHT22;11991;57.150;-2.134;2024-02-26T09:03:44;4.30;99.90
23629;DHT22;11991;57.150;-2.134;2024-02-26T09:06:14;4.20;99.90
23629;DHT22;11991;57.150;-2.134;2024-02-26T09:08:42;4.20;99.90
23629;DHT22;11991;57.150;-2.134;2024-02-26T09:11:09;4.20;99.90
23629;DHT22;11991;57.150;-2.134;2024-02-26T09:13:37;4.20;99.90
23629;DHT22;11991;57.150;-2.134;2024-02-26T09:16:05;4.20;99.90
23629;DHT22;11991;57.150;-2.134;2024-02-26T09:18:33;4.20;99.90
23629;DHT22;11991;57.150;-2.134;2024-02-26T09:21:04;4.30;99.90
23629;DHT22;11991;57.150;-2.134;2024-02-26T09:23:32;4.30;99.90
23629;DHT22;11991;57.150;-2.134;2024-02-26T09:26:01;4.40;99.90
23629;DHT22;11991;57.150;-2.134;2024-02-26T09:28:28;4.40;99.90
23629;DHT22;11991;57.150;-2.134;2024-02-26T09:30:58;4.40;99.90
23629;DHT22;11991;57.150;-2.134;2024-02-26T09:33:25;4.40;99.90
23629;DHT22;11991;57.150;-2.134;2024-02-26T09:35:53;4.40;99.90
23629;DHT22;11991;57.150;-2.134;2024-02-26T09:38:20;4.30;99.90
23629;DHT22;11991;57.150;-2.134;2024-02-26T09:40:48;4.40;99.90
23629;DHT22;11991;57.150;-2.134;2024-02-26T09:43:17;4.40;99.90
23629;DHT22;11991;57.150;-2.134;2024-02-26T09:45:50;4.40;99.90
23629;DHT22;11991;57.150;-2.134;2024-02-26T09:48:17;4.40;99.90
23629;DHT22;11991;57.150;-2.134;2024-02-26T09:50:45;4.40;99.90
23629;DHT22;11991;57.150;-2.134;2024-02-26T09:53:13;4.50;99.90
23629;DHT22;11991;57.150;-2.134;2024-02-26T09:55:41;4.50;99.90
23629;DHT22;11991;57.150;-2.134;2024-02-26T09:58:10;4.50;99.90
23629;DHT22;11991;57.150;-2.134;2024-02-26T10:00:38;4.60;99.90
23629;DHT22;11991;57.150;-2.134;2024-02-26T10:03:10;4.60;99.90
23629;DHT22;11991;57.150;-2.134;2024-02-26T10:05:41;4.60;99.90
23629;DHT22;11991;57.150;-2.134;2024-02-26T10:08:11;4.70;99.90
23629;DHT22;11991;57.150;-2.134;2024-02-26T10:10:39;4.70;99.90
23629;DHT22;11991;57.150;-2.134;2024-02-26T10:13:07;4.80;99.90
23629;DHT22;11991;57.150;-2.134;2024-02-26T10:15:37;4.90;99.90
23629;DHT22;11991;57.150;-2.134;2024-02-26T10:18:05;4.90;99.90
23629;DHT22;11991;57.150;-2.134;2024-02-26T10:20:33;5.00;99.90
23629;DHT22;11991;57.150;-2.134;2024-02-26T10:23:04;5.10;99.90
23629;DHT22;11991;57.150;-2.134;2024-02-26T10:25:32;5.00;99.90
23629;DHT22;11991;57.150;-2.134;2024-02-26T10:28:00;5.00;99.90
23629;DHT22;11991;57.150;-2.134;2024-02-26T10:30:30;5.00;99.90
23629;DHT22;11991;57.150;-2.134;2024-02-26T10:32:59;4.90;99.90
23629;DHT22;11991;57.150;-2.134;2024-02-26T10:35:26;4.90;99.90
23629;DHT22;11991;57.150;-2.134;2024-02-26T10:37:56;4.90;99.90
23629;DHT22;11991;57.150;-2.134;2024-02-26T10:40:23;5.00;99.90
23629;DHT22;11991;57.150;-2.134;2024-02-26T10:42:50;5.00;99.90
23629;DHT22;11991;57.150;-2.134;2024-02-26T10:45:17;5.00;99.90
23629;DHT22;11991;57.150;-2.134;2024-02-26T10:47:46;5.00;99.90
23629;DHT22;11991;57.150;-2.134;2024-02-26T10:50:14;5.00;99.90
23629;DHT22;11991;57.150;-2.134;2024-02-26T10:52:43;5.10;99.90
23629;DHT22;11991;57.150;-2.134;2024-02-26T10:55:15;5.10;99.90
23629;DHT22;11991;57.150;-2.134;2024-02-26T10:57:45;5.20;99.90
23629;DHT22;11991;57.150;-2.134;2024-02-26T11:00:15;5.20;99.90
23629;DHT22;11991;57.150;-2.134;2024-02-26T11:02:45;5.20;99.90
23629;DHT22;11991;57.150;-2.134;2024-02-26T11:05:14;5.30;99.90
23629;DHT22;11991;57.150;-2.134;2024-02-26T11:07:42;5.30;99.90
23629;DHT22;11991;57.150;-2.134;2024-02-26T11:10:11;5.30;99.90
23629;DHT22;11991;57.150;-2.134;2024-02-26T11:12:39;5.30;99.90
23629;DHT22;11991;57.150;-2.134;2024-02-26T11:15:08;5.30;99.90
23629;DHT22;11991;57.150;-2.134;2024-02-26T11:17:36;5.30;99.90
23629;DHT22;11991;57.150;-2.134;2024-02-26T11:20:09;5.30;99.90
23629;DHT22;11991;57.150;-2.134;2024-02-26T11:22:38;5.30;99.90
23629;DHT22;11991;57.150;-2.134;2024-02-26T11:25:05;5.30;99.90
23629;DHT22;11991;57.150;-2.134;2024-02-26T11:27:51;5.30;99.90
23629;DHT22;11991;57.150;-2.134;2024-02-26T11:30:21;5.20;99.90
23629;DHT22;11991;57.150;-2.134;2024-02-26T11:32:49;5.30;99.90
23629;DHT22;11991;57.150;-2.134;2024-02-26T11:35:18;5.30;99.90
23629;DHT22;11991;57.150;-2.134;2024-02-26T11:37:55;5.30;99.90
23629;DHT22;11991;57.150;-2.134;2024-02-26T11:40:26;5.40;99.90
23629;DHT22;11991;57.150;-2.134;2024-02-26T11:42:54;5.40;99.90
23629;DHT22;11991;57.150;-2.134;2024-02-26T11:48:12;5.30;99.90
23629;DHT22;11991;57.150;-2.134;2024-02-26T11:50:41;5.30;99.90
23629;DHT22;11991;57.150;-2.134;2024-02-26T11:53:28;5.30;99.90
23629;DHT22;11991;57.150;-2.134;2024-02-26T11:58:44;5.30;99.90
23629;DHT22;11991;57.150;-2.134;2024-02-26T12:04:12;5.40;99.90
23629;DHT22;11991;57.150;-2.134;2024-02-26T12:06:45;5.50;99.90
23629;DHT22;11991;57.150;-2.134;2024-02-26T12:09:13;5.60;99.90
23629;DHT22;11991;57.150;-2.134;2024-02-26T12:11:57;5.60;99.90
23629;DHT22;11991;57.150;-2.134;2024-02-26T12:14:26;5.70;99.90
23629;DHT22;11991;57.150;-2.134;2024-02-26T12:16:55;5.70;99.90
23629;DHT22;11991;57.150;-2.134;2024-02-26T12:19:23;5.80;99.90
23629;DHT22;11991;57.150;-2.134;2024-02-26T12:21:53;5.90;99.90
23629;DHT22;11991;57.150;-2.134;2024-02-26T12:24:22;6.00;99.90
23629;DHT22;11991;57.150;-2.134;2024-02-26T12:26:49;6.00;99.90
23629;DHT22;11991;57.150;-2.134;2024-02-26T12:29:16;6.10;99.90
23629;DHT22;11991;57.150;-2.134;2024-02-26T12:31:44;6.10;99.90
23629;DHT22;11991;57.150;-2.134;2024-02-26T12:34:12;6.10;99.90
23629;DHT22;11991;57.150;-2.134;2024-02-26T12:36:41;6.00;99.90
23629;DHT22;11991;57.150;-2.134;2024-02-26T12:39:08;6.00;99.90
23629;DHT22;11991;57.150;-2.134;2024-02-26T12:41:38;6.00;99.90
23629;DHT22;11991;57.150;-2.134;2024-02-26T12:44:07;6.00;99.90
23629;DHT22;11991;57.150;-2.134;2024-02-26T12:46:35;6.10;99.90
23629;DHT22;11991;57.150;-2.134;2024-02-26T12:49:02;6.20;99.90
23629;DHT22;11991;57.150;-2.134;2024-02-26T12:51:30;6.30;99.90
23629;DHT22;11991;57.150;-2.134;2024-02-26T12:53:57;6.40;99.90
23629;DHT22;11991;57.150;-2.134;2024-02-26T12:56:25;6.60;99.90
23629;DHT22;11991;57.150;-2.134;2024-02-26T12:58:54;6.60;99.90
23629;DHT22;11991;57.150;-2.134;2024-02-26T13:01:24;6.40;99.90
23629;DHT22;11991;57.150;-2.134;2024-02-26T13:03:52;6.10;99.90
23629;DHT22;11991;57.150;-2.134;2024-02-26T13:06:20;5.80;99.90
23629;DHT22;11991;57.150;-2.134;2024-02-26T13:08:49;5.70;99.90
23629;DHT22;11991;57.150;-2.134;2024-02-26T13:11:16;5.60;99.90
23629;DHT22;11991;57.150;-2.134;2024-02-26T13:13:48;5.50;99.90
23629;DHT22;11991;57.150;-2.134;2024-02-26T13:16:16;5.40;99.90
23629;DHT22;11991;57.150;-2.134;2024-02-26T13:18:43;5.30;99.90
23629;DHT22;11991;57.150;-2.134;2024-02-26T13:21:15;5.30;99.90
23629;DHT22;11991;57.150;-2.134;2024-02-26T13:23:43;5.30;99.90
23629;DHT22;11991;57.150;-2.134;2024-02-26T13:26:15;5.30;99.90
23629;DHT22;11991;57.150;-2.134;2024-02-26T13:28:42;5.50;99.90
23629;DHT22;11991;57.150;-2.134;2024-02-26T13:31:10;5.60;99.90
23629;DHT22;11991;57.150;-2.134;2024-02-26T13:33:39;5.80;99.90
23629;DHT22;11991;57.150;-2.134;2024-02-26T13:36:07;5.90;99.90
23629;DHT22;11991;57.150;-2.134;2024-02-26T13:38:36;6.00;99.90
23629;DHT22;11991;57.150;-2.134;2024-02-26T13:41:04;6.10;99.90
23629;DHT22;11991;57.150;-2.134;2024-02-26T13:43:31;6.20;99.90
23629;DHT22;11991;57.150;-2.134;2024-02-26T13:45:58;6.20;99.90
23629;DHT22;11991;57.150;-2.134;2024-02-26T13:48:25;6.20;99.90
23629;DHT22;11991;57.150;-2.134;2024-02-26T13:50:53;6.10;99.90
23629;DHT22;11991;57.150;-2.134;2024-02-26T13:53:20;6.10;99.90
23629;DHT22;11991;57.150;-2.134;2024-02-26T13:55:50;6.10;99.90
23629;DHT22;11991;57.150;-2.134;2024-02-26T13:58:18;6.10;99.90
23629;DHT22;11991;57.150;-2.134;2024-02-26T14:00:49;6.10;99.90
23629;DHT22;11991;57.150;-2.134;2024-02-26T14:03:17;6.10;99.90
23629;DHT22;11991;57.150;-2.134;2024-02-26T14:05:44;6.10;99.90
23629;DHT22;11991;57.150;-2.134;2024-02-26T14:08:14;6.10;99.90
23629;DHT22;11991;57.150;-2.134;2024-02-26T14:10:42;6.10;99.90
23629;DHT22;11991;57.150;-2.134;2024-02-26T14:13:09;6.10;99.90
23629;DHT22;11991;57.150;-2.134;2024-02-26T14:15:36;6.20;99.90
23629;DHT22;11991;57.150;-2.134;2024-02-26T14:18:06;6.20;99.90
23629;DHT22;11991;57.150;-2.134;2024-02-26T14:20:35;6.20;99.90
23629;DHT22;11991;57.150;-2.134;2024-02-26T14:23:02;6.30;99.90
23629;DHT22;11991;57.150;-2.134;2024-02-26T14:25:29;6.40;99.90
23629;DHT22;11991;57.150;-2.134;2024-02-26T14:27:57;6.40;99.90
23629;DHT22;11991;57.150;-2.134;2024-02-26T14:30:26;6.50;99.90
23629;DHT22;11991;57.150;-2.134;2024-02-26T14:32:54;6.50;99.90
23629;DHT22;11991;57.150;-2.134;2024-02-26T14:35:21;6.50;99.90
23629;DHT22;11991;57.150;-2.134;2024-02-26T14:37:48;6.40;99.90
23629;DHT22;11991;57.150;-2.134;2024-02-26T14:40:17;6.40;99.90
23629;DHT22;11991;57.150;-2.134;2024-02-26T14:42:44;6.30;99.90
23629;DHT22;11991;57.150;-2.134;2024-02-26T14:45:12;6.30;99.90
23629;DHT22;11991;57.150;-2.134;2024-02-26T14:47:40;6.10;99.90
23629;DHT22;11991;57.150;-2.134;2024-02-26T14:50:07;6.10;99.90
23629;DHT22;11991;57.150;-2.134;2024-02-26T14:52:35;6.00;99.90
23629;DHT22;11991;57.150;-2.134;2024-02-26T14:55:02;6.00;99.90
23629;DHT22;11991;57.150;-2.134;2024-02-26T14:57:29;6.00;99.90
23629;DHT22;11991;57.150;-2.134;2024-02-26T14:59:56;5.90;99.90
23629;DHT22;11991;57.150;-2.134;2024-02-26T15:02:24;5.90;99.90
23629;DHT22;11991;57.150;-2.134;2024-02-26T15:04:51;6.00;99.90
23629;DHT22;11991;57.150;-2.134;2024-02-26T15:07:18;6.00;99.90
23629;DHT22;11991;57.150;-2.134;2024-02-26T15:09:47;6.10;99.90
23629;DHT22;11991;57.150;-2.134;2024-02-26T15:12:14;6.10;99.90
23629;DHT22;11991;57.150;-2.134;2024-02-26T15:14:42;6.20;99.90
23629;DHT22;11991;57.150;-2.134;2024-02-26T15:17:09;6.20;99.90
23629;DHT22;11991;57.150;-2.134;2024-02-26T15:19:40;6.30;99.90
23629;DHT22;11991;57.150;-2.134;2024-02-26T15:22:07;6.30;99.90
23629;DHT22;11991;57.150;-2.134;2024-02-26T15:24:34;6.40;99.90
23629;DHT22;11991;57.150;-2.134;2024-02-26T15:27:02;6.50;99.90
23629;DHT22;11991;57.150;-2.134;2024-02-26T15:29:30;6.60;99.90
23629;DHT22;11991;57.150;-2.134;2024-02-26T15:31:57;6.60;99.90
23629;DHT22;11991;57.150;-2.134;2024-02-26T15:34:24;6.70;99.90
23629;DHT22;11991;57.150;-2.134;2024-02-26T15:36:52;6.70;99.90
23629;DHT22;11991;57.150;-2.134;2024-02-26T15:39:19;6.80;99.90
23629;DHT22;11991;57.150;-2.134;2024-02-26T15:41:48;6.80;99.90
23629;DHT22;11991;57.150;-2.134;2024-02-26T15:44:16;6.90;99.90